sensor_id;sensor_type;location;lat;lon;timestamp;temperature;humidity
16879;DHT22;8556;52.218;9.884;2023-12-20T00:00:20;7.20;99.90
16879;DHT22;8556;52.218;9.884;2023-12-20T00:02:46;7.20;99.90
16879;DHT22;8556;52.218;9.884;2023-12-20T00:05:13;7.20;99.90
16879;DHT22;8556;52.218;9.884;2023-12-20T00:07:40;7.30;99.90
16879;DHT22;8556;52.218;9.884;2023-12-20T00:10:08;7.20;99.90
16879;DHT22;8556;52.218;9.884;2023-12-20T00:12:36;7.30;99.90
16879;DHT22;8556;52.218;9.884;2023-12-20T00:15:04;7.20;99.90
16879;DHT22;8556;52.218;9.884;2023-12-20T00:17:30;7.20;99.90
16879;DHT22;8556;52.218;9.884;2023-12-20T00:19:57;7.20;99.90
16879;DHT22;8556;52.218;9.884;2023-12-20T00:22:24;7.20;99.90
16879;DHT22;8556;52.218;9.884;2023-12-20T00:24:51;7.20;99.90
16879;DHT22;8556;52.218;9.884;2023-12-20T00:27:18;7.20;99.90
16879;DHT22;8556;52.218;9.884;2023-12-20T00:29:46;7.20;99.90
16879;DHT22;8556;52.218;9.884;2023-12-20T00:32:15;7.10;99.90
16879;DHT22;8556;52.218;9.884;2023-12-20T00:34:43;7.20;99.90
16879;DHT22;8556;52.218;9.884;2023-12-20T00:37:09;7.10;99.90
16879;DHT22;8556;52.218;9.884;2023-12-20T00:39:36;7.10;99.90
16879;DHT22;8556;52.218;9.884;2023-12-20T00:42:04;7.10;99.90
16879;DHT22;8556;52.218;9.884;2023-12-20T00:44:31;7.10;99.90
16879;DHT22;8556;52.218;9.884;2023-12-20T00:46:59;7.00;99.90
16879;DHT22;8556;52.218;9.884;2023-12-20T00:49:26;7.00;99.90
16879;DHT22;8556;52.218;9.884;2023-12-20T00:51:53;7.00;99.90
16879;DHT22;8556;52.218;9.884;2023-12-20T00:54:20;7.00;99.90
16879;DHT22;8556;52.218;9.884;2023-12-20T00:56:47;7.00;99.90
16879;DHT22;8556;52.218;9.884;2023-12-20T00:59:13;6.90;99.90
16879;DHT22;8556;52.218;9.884;2023-12-20T01:01:40;7.00;99.90
16879;DHT22;8556;52.218;9.884;2023-12-20T01:04:09;6.80;99.90
16879;DHT22;8556;52.218;9.884;2023-12-20T01:06:36;6.80;99.90
16879;DHT22;8556;52.218;9.884;2023-12-20T01:09:03;6.80;99.90
16879;DHT22;8556;52.218;9.884;2023-12-20T01:11:29;6.70;99.90
16879;DHT22;8556;52.218;9.884;2023-12-20T01:13:56;6.70;99.90
16879;DHT22;8556;52.218;9.884;2023-12-20T01:16:23;6.60;99.90
16879;DHT22;8556;52.218;9.884;2023-12-20T01:18:50;6.70;99.90
16879;DHT22;8556;52.218;9.884;2023-12-20T01:21:18;6.60;99.90
16879;DHT22;8556;52.218;9.884;2023-12-20T01:23:45;6.60;99.90
16879;DHT22;8556;52.218;9.884;2023-12-20T01:26:12;6.60;99.90
16879;DHT22;8556;52.218;9.884;2023-12-20T01:28:41;6.50;99.90
16879;DHT22;8556;52.218;9.884;2023-12-20T01:31:08;6.50;99.90
16879;DHT22;8556;52.218;9.884;2023-12-20T01:33:35;6.40;99.90
16879;DHT22;8556;52.218;9.884;2023-12-20T01:36:02;6.40;99.90
16879;DHT22;8556;52.218;9.884;2023-12-20T01:38:30;6.40;99.90
16879;DHT22;8556;52.218;9.884;2023-12-20T01:40:57;6.40;99.90
16879;DHT22;8556;52.218;9.884;2023-12-20T01:43:24;6.40;99.90
16879;DHT22;8556;52.218;9.884;2023-12-20T01:45:51;6.30;99.90
16879;DHT22;8556;52.218;9.884;2023-12-20T01:48:19;6.30;99.90
16879;DHT22;8556;52.218;9.884;2023-12-20T01:50:47;6.30;99.90
16879;DHT22;8556;52.218;9.884;2023-12-20T01:53:14;6.40;99.90
16879;DHT22;8556;52.218;9.884;2023-12-20T01:55:44;6.40;99.90
16879;DHT22;8556;52.218;9.884;2023-12-20T01:58:11;6.40;99.90
16879;DHT22;8556;52.218;9.884;2023-12-20T02:00:38;6.40;99.90
16879;DHT22;8556;52.218;9.884;2023-12-20T02:03:05;6.40;99.90
16879;DHT22;8556;52.218;9.884;2023-12-20T02:05:34;6.50;99.90
16879;DHT22;8556;52.218;9.884;2023-12-20T02:08:01;6.50;99.90
16879;DHT22;8556;52.218;9.884;2023-12-20T02:10:28;6.50;99.90
16879;DHT22;8556;52.218;9.884;2023-12-20T02:12:57;6.50;99.90
16879;DHT22;8556;52.218;9.884;2023-12-20T02:15:24;6.50;99.90
16879;DHT22;8556;52.218;9.884;2023-12-20T02:17:51;6.40;99.90
16879;DHT22;8556;52.218;9.884;2023-12-20T02:20:18;6.40;99.90
16879;DHT22;8556;52.218;9.884;2023-12-20T02:22:46;6.40;99.90
16879;DHT22;8556;52.218;9.884;2023-12-20T02:25:13;6.40;99.90
16879;DHT22;8556;52.218;9.884;2023-12-20T02:27:40;6.40;99.90
16879;DHT22;8556;52.218;9.884;2023-12-20T02:30:08;6.40;99.90
16879;DHT22;8556;52.218;9.884;2023-12-20T02:32:35;6.30;1.00
16879;DHT22;8556;52.218;9.884;2023-12-20T02:35:02;6.30;1.00
16879;DHT22;8556;52.218;9.884;2023-12-20T02:37:29;6.20;99.90
16879;DHT22;8556;52.218;9.884;2023-12-20T02:39:57;6.20;1.00
16879;DHT22;8556;52.218;9.884;2023-12-20T02:42:24;6.10;1.00
16879;DHT22;8556;52.218;9.884;2023-12-20T02:44:51;6.00;1.00
16879;DHT22;8556;52.218;9.884;2023-12-20T02:47:18;6.00;1.00
16879;DHT22;8556;52.218;9.884;2023-12-20T02:49:45;6.00;1.00
16879;DHT22;8556;52.218;9.884;2023-12-20T02:52:12;6.00;99.90
16879;DHT22;8556;52.218;9.884;2023-12-20T02:54:39;6.00;1.00
16879;DHT22;8556;52.218;9.884;2023-12-20T02:57:07;5.90;1.00
16879;DHT22;8556;52.218;9.884;2023-12-20T02:59:34;5.90;1.00
16879;DHT22;8556;52.218;9.884;2023-12-20T03:02:01;5.90;1.00
16879;DHT22;8556;52.218;9.884;2023-12-20T03:04:28;5.90;1.00
16879;DHT22;8556;52.218;9.884;2023-12-20T03:06:55;5.90;99.90
16879;DHT22;8556;52.218;9.884;2023-12-20T03:09:22;6.00;1.00
16879;DHT22;8556;52.218;9.884;2023-12-20T03:11:48;6.00;99.90
16879;DHT22;8556;52.218;9.884;2023-12-20T03:14:17;5.90;99.90
16879;DHT22;8556;52.218;9.884;2023-12-20T03:16:47;6.00;1.00
16879;DHT22;8556;52.218;9.884;2023-12-20T03:19:14;6.00;1.00
16879;DHT22;8556;52.218;9.884;2023-12-20T03:21:41;5.90;1.00
16879;DHT22;8556;52.218;9.884;2023-12-20T03:24:08;5.90;1.00
16879;DHT22;8556;52.218;9.884;2023-12-20T03:26:35;5.90;1.00
16879;DHT22;8556;52.218;9.884;2023-12-20T03:29:02;5.80;1.00
16879;DHT22;8556;52.218;9.884;2023-12-20T03:31:30;5.70;1.00
16879;DHT22;8556;52.218;9.884;2023-12-20T03:33:57;5.80;1.00
16879;DHT22;8556;52.218;9.884;2023-12-20T03:36:24;5.80;1.00
16879;DHT22;8556;52.218;9.884;2023-12-20T03:38:51;5.70;1.00
16879;DHT22;8556;52.218;9.884;2023-12-20T03:41:18;5.80;1.00
16879;DHT22;8556;52.218;9.884;2023-12-20T03:43:45;5.70;1.00
16879;DHT22;8556;52.218;9.884;2023-12-20T03:46:12;5.70;1.00
16879;DHT22;8556;52.218;9.884;2023-12-20T03:48:40;5.70;1.00
16879;DHT22;8556;52.218;9.884;2023-12-20T03:51:07;5.70;1.00
16879;DHT22;8556;52.218;9.884;2023-12-20T03:53:34;5.70;99.90
16879;DHT22;8556;52.218;9.884;2023-12-20T03:56:00;5.70;99.90
16879;DHT22;8556;52.218;9.884;2023-12-20T03:58:27;5.70;1.00
16879;DHT22;8556;52.218;9.884;2023-12-20T04:00:54;5.80;99.90
16879;DHT22;8556;52.218;9.884;2023-12-20T04:03:21;5.80;99.90
16879;DHT22;8556;52.218;9.884;2023-12-20T04:05:50;5.70;99.90
16879;DHT22;8556;52.218;9.884;2023-12-20T04:08:16;5.70;1.00
16879;DHT22;8556;52.218;9.884;2023-12-20T04:10:43;5.80;1.00
16879;DHT22;8556;52.218;9.884;2023-12-20T04:13:10;5.90;99.90
16879;DHT22;8556;52.218;9.884;2023-12-20T04:15:37;5.90;99.90
16879;DHT22;8556;52.218;9.884;2023-12-20T04:18:04;5.90;99.90
16879;DHT22;8556;52.218;9.884;2023-12-20T04:20:31;5.90;99.90
16879;DHT22;8556;52.218;9.884;2023-12-20T04:22:59;6.00;99.90
16879;DHT22;8556;52.218;9.884;2023-12-20T04:25:26;6.00;1.00
16879;DHT22;8556;52.218;9.884;2023-12-20T04:27:53;6.00;1.00
16879;DHT22;8556;52.218;9.884;2023-12-20T04:30:20;6.00;1.00
16879;DHT22;8556;52.218;9.884;2023-12-20T04:32:47;6.10;1.00
16879;DHT22;8556;52.218;9.884;2023-12-20T04:35:14;6.10;1.00
16879;DHT22;8556;52.218;9.884;2023-12-20T04:37:40;6.20;1.00
16879;DHT22;8556;52.218;9.884;2023-12-20T04:40:09;6.20;1.00
16879;DHT22;8556;52.218;9.884;2023-12-20T04:42:37;6.30;99.90
16879;DHT22;8556;52.218;9.884;2023-12-20T04:45:04;6.30;99.90
16879;DHT22;8556;52.218;9.884;2023-12-20T04:47:31;6.30;99.90
16879;DHT22;8556;52.218;9.884;2023-12-20T04:49:58;6.30;99.90
16879;DHT22;8556;52.218;9.884;2023-12-20T04:52:25;6.40;1.00
16879;DHT22;8556;52.218;9.884;2023-12-20T04:54:52;6.40;1.00
16879;DHT22;8556;52.218;9.884;2023-12-20T04:57:21;6.30;1.00
16879;DHT22;8556;52.218;9.884;2023-12-20T04:59:48;6.40;1.00
16879;DHT22;8556;52.218;9.884;2023-12-20T05:02:15;6.40;1.00
16879;DHT22;8556;52.218;9.884;2023-12-20T05:04:42;6.30;1.00
16879;DHT22;8556;52.218;9.884;2023-12-20T05:07:09;6.40;99.90
16879;DHT22;8556;52.218;9.884;2023-12-20T05:09:35;6.40;1.00
16879;DHT22;8556;52.218;9.884;2023-12-20T05:12:03;6.40;1.00
16879;DHT22;8556;52.218;9.884;2023-12-20T05:14:31;6.30;1.00
16879;DHT22;8556;52.218;9.884;2023-12-20T05:16:58;6.30;99.90
16879;DHT22;8556;52.218;9.884;2023-12-20T05:19:25;6.30;1.00
16879;DHT22;8556;52.218;9.884;2023-12-20T05:21:52;6.30;1.00
16879;DHT22;8556;52.218;9.884;2023-12-20T05:24:19;6.30;99.90
16879;DHT22;8556;52.218;9.884;2023-12-20T05:26:46;6.30;99.90
16879;DHT22;8556;52.218;9.884;2023-12-20T05:29:13;6.30;1.00
16879;DHT22;8556;52.218;9.884;2023-12-20T05:31:41;6.40;99.90
16879;DHT22;8556;52.218;9.884;2023-12-20T05:34:08;6.40;99.90
16879;DHT22;8556;52.218;9.884;2023-12-20T05:36:35;6.40;99.90
16879;DHT22;8556;52.218;9.884;2023-12-20T05:39:02;6.50;99.90
16879;DHT22;8556;52.218;9.884;2023-12-20T05:41:30;6.50;99.90
16879;DHT22;8556;52.218;9.884;2023-12-20T05:43:57;6.50;99.90
16879;DHT22;8556;52.218;9.884;2023-12-20T05:46:24;6.50;99.90
16879;DHT22;8556;52.218;9.884;2023-12-20T05:48:53;6.50;99.90
16879;DHT22;8556;52.218;9.884;2023-12-20T05:51:20;6.60;99.90
16879;DHT22;8556;52.218;9.884;2023-12-20T05:53:46;6.60;91.20
16879;DHT22;8556;52.218;9.884;2023-12-20T05:56:15;6.60;71.30
16879;DHT22;8556;52.218;9.884;2023-12-20T05:58:42;6.60;99.90
16879;DHT22;8556;52.218;9.884;2023-12-20T06:01:09;6.50;1.00
16879;DHT22;8556;52.218;9.884;2023-12-20T06:03:36;6.50;1.00
16879;DHT22;8556;52.218;9.884;2023-12-20T06:06:06;6.50;1.00
16879;DHT22;8556;52.218;9.884;2023-12-20T06:08:33;6.50;1.00
16879;DHT22;8556;52.218;9.884;2023-12-20T06:11:00;6.50;13.30
16879;DHT22;8556;52.218;9.884;2023-12-20T06:13:27;6.50;1.00
16879;DHT22;8556;52.218;9.884;2023-12-20T06:15:54;6.50;1.00
16879;DHT22;8556;52.218;9.884;2023-12-20T06:18:22;6.30;1.00
16879;DHT22;8556;52.218;9.884;2023-12-20T06:20:50;6.30;1.00
16879;DHT22;8556;52.218;9.884;2023-12-20T06:23:21;6.20;1.00
16879;DHT22;8556;52.218;9.884;2023-12-20T06:25:48;6.10;1.00
16879;DHT22;8556;52.218;9.884;2023-12-20T06:28:15;6.00;99.90
16879;DHT22;8556;52.218;9.884;2023-12-20T06:30:42;6.10;1.00
16879;DHT22;8556;52.218;9.884;2023-12-20T06:33:09;6.20;99.90
16879;DHT22;8556;52.218;9.884;2023-12-20T06:35:37;6.20;99.90
16879;DHT22;8556;52.218;9.884;2023-12-20T06:38:04;6.20;1.00
16879;DHT22;8556;52.218;9.884;2023-12-20T06:40:32;6.30;99.90
16879;DHT22;8556;52.218;9.884;2023-12-20T06:42:59;6.30;1.00
16879;DHT22;8556;52.218;9.884;2023-12-20T06:45:26;6.30;1.00
16879;DHT22;8556;52.218;9.884;2023-12-20T06:47:53;6.30;1.00
16879;DHT22;8556;52.218;9.884;2023-12-20T06:50:20;6.20;1.00
16879;DHT22;8556;52.218;9.884;2023-12-20T06:52:47;6.20;1.00
16879;DHT22;8556;52.218;9.884;2023-12-20T06:55:14;6.10;99.90
16879;DHT22;8556;52.218;9.884;2023-12-20T06:57:42;6.10;99.90
16879;DHT22;8556;52.218;9.884;2023-12-20T07:00:11;6.10;1.00
16879;DHT22;8556;52.218;9.884;2023-12-20T07:02:38;6.10;99.90
16879;DHT22;8556;52.218;9.884;2023-12-20T07:05:08;6.20;99.90
16879;DHT22;8556;52.218;9.884;2023-12-20T07:07:35;6.30;99.90
16879;DHT22;8556;52.218;9.884;2023-12-20T07:10:02;6.10;1.00
16879;DHT22;8556;52.218;9.884;2023-12-20T07:12:29;6.00;1.00
16879;DHT22;8556;52.218;9.884;2023-12-20T07:14:57;6.10;1.00
16879;DHT22;8556;52.218;9.884;2023-12-20T07:17:23;6.20;1.00
16879;DHT22;8556;52.218;9.884;2023-12-20T07:19:50;6.10;1.00
16879;DHT22;8556;52.218;9.884;2023-12-20T07:22:17;6.20;1.00
16879;DHT22;8556;52.218;9.884;2023-12-20T07:24:44;6.30;1.00
16879;DHT22;8556;52.218;9.884;2023-12-20T07:27:11;6.30;1.00
16879;DHT22;8556;52.218;9.884;2023-12-20T07:29:38;6.30;1.00
16879;DHT22;8556;52.218;9.884;2023-12-20T07:32:06;6.30;99.90
16879;DHT22;8556;52.218;9.884;2023-12-20T07:34:34;6.30;1.00
16879;DHT22;8556;52.218;9.884;2023-12-20T07:37:00;6.20;99.90
16879;DHT22;8556;52.218;9.884;2023-12-20T07:39:27;6.20;99.90
16879;DHT22;8556;52.218;9.884;2023-12-20T07:41:54;6.10;1.00
16879;DHT22;8556;52.218;9.884;2023-12-20T07:44:21;6.20;99.90
16879;DHT22;8556;52.218;9.884;2023-12-20T07:46:48;6.30;99.90
16879;DHT22;8556;52.218;9.884;2023-12-20T07:49:17;6.30;99.90
16879;DHT22;8556;52.218;9.884;2023-12-20T07:51:43;6.40;99.90
16879;DHT22;8556;52.218;9.884;2023-12-20T07:54:10;6.50;99.90
16879;DHT22;8556;52.218;9.884;2023-12-20T07:56:37;6.40;99.90
16879;DHT22;8556;52.218;9.884;2023-12-20T07:59:05;6.50;99.90
16879;DHT22;8556;52.218;9.884;2023-12-20T08:01:32;6.50;99.90
16879;DHT22;8556;52.218;9.884;2023-12-20T08:03:59;6.50;1.00
16879;DHT22;8556;52.218;9.884;2023-12-20T08:06:27;6.50;39.40
16879;DHT22;8556;52.218;9.884;2023-12-20T08:08:54;6.50;68.60
16879;DHT22;8556;52.218;9.884;2023-12-20T08:11:21;6.60;23.50
16879;DHT22;8556;52.218;9.884;2023-12-20T08:13:48;6.60;71.40
16879;DHT22;8556;52.218;9.884;2023-12-20T08:16:15;6.60;99.90
16879;DHT22;8556;52.218;9.884;2023-12-20T08:18:43;6.50;99.90
16879;DHT22;8556;52.218;9.884;2023-12-20T08:21:11;6.60;1.00
16879;DHT22;8556;52.218;9.884;2023-12-20T08:23:40;6.60;1.00
16879;DHT22;8556;52.218;9.884;2023-12-20T08:26:07;6.60;99.90
16879;DHT22;8556;52.218;9.884;2023-12-20T08:28:34;6.60;99.90
16879;DHT22;8556;52.218;9.884;2023-12-20T08:31:02;6.60;99.90
16879;DHT22;8556;52.218;9.884;2023-12-20T08:33:29;6.70;1.00
16879;DHT22;8556;52.218;9.884;2023-12-20T08:35:56;6.60;1.00
16879;DHT22;8556;52.218;9.884;2023-12-20T08:38:22;6.70;1.00
16879;DHT22;8556;52.218;9.884;2023-12-20T08:40:51;6.60;1.00
16879;DHT22;8556;52.218;9.884;2023-12-20T08:43:17;6.60;1.00
16879;DHT22;8556;52.218;9.884;2023-12-20T08:45:44;6.70;1.00
16879;DHT22;8556;52.218;9.884;2023-12-20T08:48:11;6.70;1.00
16879;DHT22;8556;52.218;9.884;2023-12-20T08:50:38;6.70;1.00
16879;DHT22;8556;52.218;9.884;2023-12-20T08:53:05;6.70;1.00
16879;DHT22;8556;52.218;9.884;2023-12-20T08:55:32;6.80;1.00
16879;DHT22;8556;52.218;9.884;2023-12-20T08:58:00;6.80;1.00
16879;DHT22;8556;52.218;9.884;2023-12-20T09:00:27;6.90;99.90
16879;DHT22;8556;52.218;9.884;2023-12-20T09:02:55;6.90;99.90
16879;DHT22;8556;52.218;9.884;2023-12-20T09:05:22;6.90;99.90
16879;DHT22;8556;52.218;9.884;2023-12-20T09:07:49;6.90;99.90
16879;DHT22;8556;52.218;9.884;2023-12-20T09:10:15;6.90;99.90
16879;DHT22;8556;52.218;9.884;2023-12-20T09:12:47;6.90;99.90
16879;DHT22;8556;52.218;9.884;2023-12-20T09:15:15;6.90;99.90
16879;DHT22;8556;52.218;9.884;2023-12-20T09:17:42;6.90;1.00
16879;DHT22;8556;52.218;9.884;2023-12-20T09:20:09;6.90;1.00
16879;DHT22;8556;52.218;9.884;2023-12-20T09:22:36;6.90;1.00
16879;DHT22;8556;52.218;9.884;2023-12-20T09:25:05;6.90;1.00
16879;DHT22;8556;52.218;9.884;2023-12-20T09:27:32;7.00;1.00
16879;DHT22;8556;52.218;9.884;2023-12-20T09:29:59;7.00;1.00
16879;DHT22;8556;52.218;9.884;2023-12-20T09:32:27;7.10;1.00
16879;DHT22;8556;52.218;9.884;2023-12-20T09:34:55;7.10;99.90
16879;DHT22;8556;52.218;9.884;2023-12-20T09:37:22;7.10;68.90
16879;DHT22;8556;52.218;9.884;2023-12-20T09:39:48;7.10;76.00
16879;DHT22;8556;52.218;9.884;2023-12-20T09:42:21;7.10;1.00
16879;DHT22;8556;52.218;9.884;2023-12-20T09:44:48;7.00;1.00
16879;DHT22;8556;52.218;9.884;2023-12-20T09:47:16;7.00;1.00
16879;DHT22;8556;52.218;9.884;2023-12-20T09:49:47;7.00;1.00
16879;DHT22;8556;52.218;9.884;2023-12-20T09:52:14;7.00;1.00
16879;DHT22;8556;52.218;9.884;2023-12-20T09:54:43;7.10;1.00
16879;DHT22;8556;52.218;9.884;2023-12-20T09:57:10;7.20;1.00
16879;DHT22;8556;52.218;9.884;2023-12-20T09:59:37;7.30;1.00
16879;DHT22;8556;52.218;9.884;2023-12-20T10:02:08;7.40;1.00
16879;DHT22;8556;52.218;9.884;2023-12-20T10:04:45;7.30;1.00
16879;DHT22;8556;52.218;9.884;2023-12-20T10:07:15;7.30;1.00
16879;DHT22;8556;52.218;9.884;2023-12-20T10:09:42;7.20;1.00
16879;DHT22;8556;52.218;9.884;2023-12-20T10:12:09;7.40;1.00
16879;DHT22;8556;52.218;9.884;2023-12-20T10:14:36;7.30;1.00
16879;DHT22;8556;52.218;9.884;2023-12-20T10:17:05;7.30;1.00
16879;DHT22;8556;52.218;9.884;2023-12-20T10:19:33;7.30;1.00
16879;DHT22;8556;52.218;9.884;2023-12-20T10:22:00;7.30;1.00
16879;DHT22;8556;52.218;9.884;2023-12-20T10:24:30;7.30;1.00
16879;DHT22;8556;52.218;9.884;2023-12-20T10:27:03;7.30;1.00
16879;DHT22;8556;52.218;9.884;2023-12-20T10:29:33;7.30;1.00
16879;DHT22;8556;52.218;9.884;2023-12-20T10:32:22;7.30;1.00
16879;DHT22;8556;52.218;9.884;2023-12-20T10:34:49;7.20;1.00
16879;DHT22;8556;52.218;9.884;2023-12-20T10:37:16;7.30;99.90
16879;DHT22;8556;52.218;9.884;2023-12-20T10:39:49;7.40;99.90
16879;DHT22;8556;52.218;9.884;2023-12-20T10:42:18;7.50;1.00
16879;DHT22;8556;52.218;9.884;2023-12-20T10:44:47;7.50;30.70
16879;DHT22;8556;52.218;9.884;2023-12-20T10:47:14;7.60;99.90
16879;DHT22;8556;52.218;9.884;2023-12-20T10:49:42;7.60;1.00
16879;DHT22;8556;52.218;9.884;2023-12-20T10:52:09;7.60;99.90
16879;DHT22;8556;52.218;9.884;2023-12-20T10:54:38;7.60;55.60
16879;DHT22;8556;52.218;9.884;2023-12-20T10:57:07;7.50;1.00
16879;DHT22;8556;52.218;9.884;2023-12-20T10:59:36;7.50;1.00
16879;DHT22;8556;52.218;9.884;2023-12-20T11:02:04;7.60;1.00
16879;DHT22;8556;52.218;9.884;2023-12-20T11:04:38;7.60;1.00
16879;DHT22;8556;52.218;9.884;2023-12-20T11:07:15;7.60;1.00
16879;DHT22;8556;52.218;9.884;2023-12-20T11:09:49;7.60;1.00
16879;DHT22;8556;52.218;9.884;2023-12-20T11:12:27;7.60;1.00
16879;DHT22;8556;52.218;9.884;2023-12-20T11:14:55;7.50;1.00
16879;DHT22;8556;52.218;9.884;2023-12-20T11:17:27;7.40;99.90
16879;DHT22;8556;52.218;9.884;2023-12-20T11:20:08;7.40;99.90
16879;DHT22;8556;52.218;9.884;2023-12-20T11:22:37;7.30;1.00
16879;DHT22;8556;52.218;9.884;2023-12-20T11:25:09;7.20;1.00
16879;DHT22;8556;52.218;9.884;2023-12-20T11:27:41;7.20;99.90
16879;DHT22;8556;52.218;9.884;2023-12-20T11:30:09;7.20;1.00
16879;DHT22;8556;52.218;9.884;2023-12-20T11:32:36;7.20;1.00
16879;DHT22;8556;52.218;9.884;2023-12-20T11:35:17;7.10;1.00
16879;DHT22;8556;52.218;9.884;2023-12-20T11:37:45;7.10;99.90
16879;DHT22;8556;52.218;9.884;2023-12-20T11:40:15;7.10;1.00
16879;DHT22;8556;52.218;9.884;2023-12-20T11:42:44;7.10;91.20
16879;DHT22;8556;52.218;9.884;2023-12-20T11:45:14;7.00;99.90
16879;DHT22;8556;52.218;9.884;2023-12-20T11:47:43;7.00;1.00
16879;DHT22;8556;52.218;9.884;2023-12-20T11:50:10;7.00;1.00
16879;DHT22;8556;52.218;9.884;2023-12-20T11:52:38;6.90;1.00
16879;DHT22;8556;52.218;9.884;2023-12-20T11:55:05;7.00;1.00
16879;DHT22;8556;52.218;9.884;2023-12-20T11:57:33;7.10;1.00
16879;DHT22;8556;52.218;9.884;2023-12-20T12:00:01;7.20;1.00
16879;DHT22;8556;52.218;9.884;2023-12-20T12:02:28;7.10;1.00
16879;DHT22;8556;52.218;9.884;2023-12-20T12:04:55;7.10;2.00
16879;DHT22;8556;52.218;9.884;2023-12-20T12:07:24;7.10;1.00
16879;DHT22;8556;52.218;9.884;2023-12-20T12:09:51;7.10;1.00
16879;DHT22;8556;52.218;9.884;2023-12-20T12:12:19;6.10;99.90
16879;DHT22;8556;52.218;9.884;2023-12-20T12:14:46;5.90;1.00
16879;DHT22;8556;52.218;9.884;2023-12-20T12:17:15;5.60;1.00
16879;DHT22;8556;52.218;9.884;2023-12-20T12:19:42;5.70;1.60
16879;DHT22;8556;52.218;9.884;2023-12-20T12:22:10;5.70;1.00
16879;DHT22;8556;52.218;9.884;2023-12-20T12:24:39;5.60;99.90
16879;DHT22;8556;52.218;9.884;2023-12-20T12:27:06;5.50;99.90
16879;DHT22;8556;52.218;9.884;2023-12-20T12:29:34;5.50;1.00
16879;DHT22;8556;52.218;9.884;2023-12-20T12:32:01;5.50;1.00
16879;DHT22;8556;52.218;9.884;2023-12-20T12:34:29;5.40;98.30
16879;DHT22;8556;52.218;9.884;2023-12-20T12:36:56;5.40;99.90
16879;DHT22;8556;52.218;9.884;2023-12-20T12:39:24;5.30;99.90
16879;DHT22;8556;52.218;9.884;2023-12-20T12:41:51;5.30;99.90
16879;DHT22;8556;52.218;9.884;2023-12-20T12:44:18;5.40;99.90
16879;DHT22;8556;52.218;9.884;2023-12-20T12:46:46;5.50;99.90
16879;DHT22;8556;52.218;9.884;2023-12-20T12:49:15;5.50;99.90
16879;DHT22;8556;52.218;9.884;2023-12-20T12:51:44;5.70;1.00
16879;DHT22;8556;52.218;9.884;2023-12-20T12:54:11;5.80;1.00
16879;DHT22;8556;52.218;9.884;2023-12-20T12:56:39;5.80;99.90
16879;DHT22;8556;52.218;9.884;2023-12-20T12:59:06;5.70;99.90
16879;DHT22;8556;52.218;9.884;2023-12-20T13:01:33;5.60;99.90
16879;DHT22;8556;52.218;9.884;2023-12-20T13:04:00;5.60;91.40
16879;DHT22;8556;52.218;9.884;2023-12-20T13:06:28;5.60;99.90
16879;DHT22;8556;52.218;9.884;2023-12-20T13:08:57;5.70;99.90
16879;DHT22;8556;52.218;9.884;2023-12-20T13:11:23;5.70;99.90
16879;DHT22;8556;52.218;9.884;2023-12-20T13:13:50;5.80;1.00
16879;DHT22;8556;52.218;9.884;2023-12-20T13:16:17;5.80;1.00
16879;DHT22;8556;52.218;9.884;2023-12-20T13:18:44;5.80;1.00
16879;DHT22;8556;52.218;9.884;2023-12-20T13:21:11;5.80;1.00
16879;DHT22;8556;52.218;9.884;2023-12-20T13:23:38;5.90;1.00
16879;DHT22;8556;52.218;9.884;2023-12-20T13:26:07;6.00;1.00
16879;DHT22;8556;52.218;9.884;2023-12-20T13:28:34;6.00;1.00
16879;DHT22;8556;52.218;9.884;2023-12-20T13:31:00;6.00;1.00
16879;DHT22;8556;52.218;9.884;2023-12-20T13:33:28;6.00;99.90
16879;DHT22;8556;52.218;9.884;2023-12-20T13:35:55;6.10;7.50
16879;DHT22;8556;52.218;9.884;2023-12-20T13:38:23;6.10;1.00
16879;DHT22;8556;52.218;9.884;2023-12-20T13:40:50;6.20;99.90
16879;DHT22;8556;52.218;9.884;2023-12-20T13:43:19;6.30;99.90
16879;DHT22;8556;52.218;9.884;2023-12-20T13:45:47;6.30;99.90
16879;DHT22;8556;52.218;9.884;2023-12-20T13:48:14;6.30;99.90
16879;DHT22;8556;52.218;9.884;2023-12-20T13:50:41;6.40;99.90
16879;DHT22;8556;52.218;9.884;2023-12-20T13:53:08;6.50;98.00
16879;DHT22;8556;52.218;9.884;2023-12-20T13:55:35;6.50;93.70
16879;DHT22;8556;52.218;9.884;2023-12-20T13:58:02;6.50;46.10
16879;DHT22;8556;52.218;9.884;2023-12-20T14:00:30;6.50;99.90
16879;DHT22;8556;52.218;9.884;2023-12-20T14:02:57;6.50;99.90
16879;DHT22;8556;52.218;9.884;2023-12-20T14:05:24;6.50;1.00
16879;DHT22;8556;52.218;9.884;2023-12-20T14:07:52;6.60;1.00
16879;DHT22;8556;52.218;9.884;2023-12-20T14:10:19;6.60;1.00
16879;DHT22;8556;52.218;9.884;2023-12-20T14:12:46;6.50;1.00
16879;DHT22;8556;52.218;9.884;2023-12-20T14:15:13;6.60;1.00
16879;DHT22;8556;52.218;9.884;2023-12-20T14:17:41;6.60;1.00
16879;DHT22;8556;52.218;9.884;2023-12-20T14:20:09;6.50;1.00
16879;DHT22;8556;52.218;9.884;2023-12-20T14:22:37;6.60;1.00
16879;DHT22;8556;52.218;9.884;2023-12-20T14:25:10;6.50;1.00
16879;DHT22;8556;52.218;9.884;2023-12-20T14:27:37;6.60;1.00
16879;DHT22;8556;52.218;9.884;2023-12-20T14:30:05;6.50;1.00
16879;DHT22;8556;52.218;9.884;2023-12-20T14:32:34;6.60;1.00
16879;DHT22;8556;52.218;9.884;2023-12-20T14:35:05;6.60;1.00
16879;DHT22;8556;52.218;9.884;2023-12-20T14:37:33;6.60;1.00
16879;DHT22;8556;52.218;9.884;2023-12-20T14:40:00;6.50;1.00
16879;DHT22;8556;52.218;9.884;2023-12-20T14:42:28;6.50;1.00
16879;DHT22;8556;52.218;9.884;2023-12-20T14:44:55;6.50;1.00
16879;DHT22;8556;52.218;9.884;2023-12-20T14:47:21;6.50;1.00
16879;DHT22;8556;52.218;9.884;2023-12-20T14:49:50;6.60;99.90
16879;DHT22;8556;52.218;9.884;2023-12-20T14:52:19;6.60;99.90
16879;DHT22;8556;52.218;9.884;2023-12-20T14:54:46;6.60;99.90
16879;DHT22;8556;52.218;9.884;2023-12-20T14:57:12;6.60;99.90
16879;DHT22;8556;52.218;9.884;2023-12-20T14:59:39;6.60;99.90
16879;DHT22;8556;52.218;9.884;2023-12-20T15:02:06;6.50;99.90
16879;DHT22;8556;52.218;9.884;2023-12-20T15:04:33;6.60;99.90
16879;DHT22;8556;52.218;9.884;2023-12-20T15:07:00;6.60;99.90
16879;DHT22;8556;52.218;9.884;2023-12-20T15:09:31;6.60;1.00
16879;DHT22;8556;52.218;9.884;2023-12-20T15:11:58;6.70;1.00
16879;DHT22;8556;52.218;9.884;2023-12-20T15:14:26;6.50;1.00
16879;DHT22;8556;52.218;9.884;2023-12-20T15:16:54;6.50;15.00
16879;DHT22;8556;52.218;9.884;2023-12-20T15:19:22;6.50;6.30
16879;DHT22;8556;52.218;9.884;2023-12-20T15:21:49;6.50;1.00
16879;DHT22;8556;52.218;9.884;2023-12-20T15:24:16;6.50;13.20
16879;DHT22;8556;52.218;9.884;2023-12-20T15:26:46;6.50;1.00
16879;DHT22;8556;52.218;9.884;2023-12-20T15:29:13;6.50;88.80
16879;DHT22;8556;52.218;9.884;2023-12-20T15:31:42;6.40;61.30
16879;DHT22;8556;52.218;9.884;2023-12-20T15:34:10;6.50;1.00
16879;DHT22;8556;52.218;9.884;2023-12-20T15:36:37;6.50;1.00
16879;DHT22;8556;52.218;9.884;2023-12-20T15:39:04;6.50;1.00
16879;DHT22;8556;52.218;9.884;2023-12-20T15:41:31;6.50;1.00
16879;DHT22;8556;52.218;9.884;2023-12-20T15:44:00;6.50;1.00
16879;DHT22;8556;52.218;9.884;2023-12-20T15:46:27;6.50;1.00
16879;DHT22;8556;52.218;9.884;2023-12-20T15:48:53;6.50;1.00
16879;DHT22;8556;52.218;9.884;2023-12-20T15:51:21;6.50;1.00
16879;DHT22;8556;52.218;9.884;2023-12-20T15:53:48;6.50;1.00
16879;DHT22;8556;52.218;9.884;2023-12-20T15:56:15;6.50;1.00
16879;DHT22;8556;52.218;9.884;2023-12-20T15:58:42;6.50;99.90
16879;DHT22;8556;52.218;9.884;2023-12-20T16:01:11;6.50;99.90
16879;DHT22;8556;52.218;9.884;2023-12-20T16:03:37;6.40;99.90
16879;DHT22;8556;52.218;9.884;2023-12-20T16:06:05;6.40;99.90
16879;DHT22;8556;52.218;9.884;2023-12-20T16:08:32;6.30;99.90
16879;DHT22;8556;52.218;9.884;2023-12-20T16:10:58;6.20;1.00